Data for 11/26/2013

Time Sea-Level Adjusted Pressure Absolute Pressure Temperature Relative Humidity Dew Point   
(mb) (inHg) (mb) (inHg) (C) (F) (%) (C) (F)
00:05 1028 30.36 857 25.31 -0.1 31.9 64 -6.2 20.9
00:10 1028 30.36 857 25.31 0.6 33.1 60 -6.2 20.8
00:15 1028 30.36 857 25.31 1.2 34.2 59 -5.9 21.3
00:20 1028 30.36 857 25.31 1.3 34.3 60 -5.7 21.7
00:25 1028 30.36 857 25.31 0.9 33.5 61 -5.8 21.6
00:30 1028 30.36 857 25.31 0.7 33.2 61 -6 21.2
00:35 1028 30.36 857 25.31 0.6 33.1 63 -5.6 21.9
00:40 1028 30.36 857 25.31 0.2 32.4 64 -5.8 21.6
00:45 1028 30.36 857 25.31 0.1 32.1 64 -6 21.2
00:50 1028 30.36 857 25.31 0.5 32.9 61 -6.2 20.9
00:55 1028 30.36 857 25.31 0.8 33.5 60 -6.1 20.9
01:00 1028 30.36 857 25.31 1 33.7 60 -6 21.2
01:05 1028 30.36 857 25.31 0.8 33.4 60 -6 21.2
01:10 1028 30.36 857 25.31 0.8 33.4 60 -6.2 20.9
01:15 1028 30.36 857 25.31 0.7 33.3 61 -5.9 21.4
01:20 1028 30.36 857 25.31 0 32 65 -5.8 21.5
01:25 1028 30.36 857 25.31 -0.1 31.8 64 -6.1 21.1
01:30 1028 30.36 857 25.31 -0.1 31.9 65 -6 21.3
01:35 1028 30.36 857 25.31 -0 31.9 64 -6 21.2
01:40 1028 30.36 857 25.31 -0.1 31.8 65 -6 21.2
01:45 1028 30.36 857 25.31 -0.4 31.2 66 -5.9 21.3
01:50 1028 30.36 857 25.31 -0.7 30.8 67 -6.1 21
01:55 1028 30.36 857 25.31 -1 30.2 69 -5.9 21.3
02:00 1028 30.36 857 25.31 -1.7 29 71 -6.3 20.7
02:05 1028 30.36 857 25.31 -1.4 29.4 69 -6.4 20.4
02:10 1028 30.36 857 25.31 -0.9 30.4 67 -6.3 20.7
02:15 1028 30.36 857 25.31 -0.7 30.8 66 -6.3 20.6
02:20 1028 30.36 857 25.31 -0.6 31 64 -6.5 20.3
02:25 1028 30.36 857 25.31 -0.4 31.3 64 -6.4 20.5
02:30 1028 30.36 857 25.31 -0.4 31.3 65 -6.3 20.7
02:35 1028 30.36 857 25.31 -0.3 31.4 63 -6.5 20.3
02:40 1028 30.36 857 25.31 -0.7 30.7 67 -6.1 21
02:45 1028 30.36 857 25.31 -1.4 29.5 69 -6.4 20.4
02:50 1028 30.36 857 25.31 -1.4 29.4 67 -6.8 19.8
02:55 1028 30.36 857 25.31 -1.4 29.5 67 -6.6 20.1
03:00 1028 30.36 857 25.31 -1.1 30.1 65 -6.9 19.6
03:05 1028 30.36 857 25.31 -1 30.2 66 -6.5 20.3
03:10 1028 30.36 857 25.31 -1.8 28.8 71 -6.4 20.5
03:15 1028 30.36 857 25.31 -1.3 29.6 67 -6.8 19.8
03:20 1028 30.36 857 25.31 -1.1 30 67 -6.4 20.4
03:25 1028 30.36 857 25.31 -1.4 29.5 69 -6.4 20.5
03:30 1028 30.36 857 25.31 -1 30.2 67 -6.4 20.4
03:35 1028 30.36 857 25.31 -1 30.3 66 -6.4 20.4
03:40 1028 30.36 857 25.31 -1.1 30 67 -6.5 20.4
03:45 1028 30.36 857 25.31 -1 30.2 67 -6.4 20.4
03:50 1028 30.36 857 25.31 -1.2 29.8 67 -6.6 20.2
03:55 1028 30.36 857 25.31 -1.4 29.6 68 -6.6 20.2
04:00 1028 30.36 857 25.31 -1.4 29.5 67 -6.8 19.8
04:05 1028 30.36 857 25.31 -1.4 29.5 66 -6.9 19.5
04:10 1028 30.36 857 25.31 -0.9 30.4 63 -7 19.5
04:15 1028 30.36 857 25.31 -0.2 31.7 61 -6.8 19.7
04:20 1028 30.36 857 25.31 -0.2 31.7 62 -6.5 20.2
04:25 1028 30.36 857 25.31 -0.6 30.9 64 -6.6 20.1
04:30 1028 30.36 857 25.31 -0.6 30.9 64 -6.7 20
04:35 1028 30.36 857 25.31 -0.5 31.2 62 -6.9 19.6
04:40 1028 30.36 857 25.31 -0.7 30.8 64 -6.7 20
04:45 1027 30.33 857 25.31 -0.4 31.4 62 -6.7 19.9
04:50 1027 30.33 857 25.31 -0.2 31.6 64 -6.2 20.8
04:55 1027 30.33 857 25.31 -0.5 31 65 -6.4 20.5
05:00 1027 30.33 857 25.31 -0.7 30.7 64 -6.6 20.1
05:05 1027 30.33 857 25.31 -1 30.2 68 -6.2 20.9
05:10 1027 30.33 857 25.31 -1.4 29.5 68 -6.5 20.3
05:15 1027 30.33 857 25.31 -1.5 29.3 68 -6.6 20.2
05:20 1027 30.33 857 25.31 -1.1 30.1 66 -6.7 20
05:25 1027 30.33 857 25.31 -0.7 30.8 64 -6.7 20
05:30 1027 30.33 857 25.31 -0.4 31.3 63 -6.5 20.3
05:35 1027 30.33 857 25.31 -1.1 30 66 -6.6 20.2
05:40 1027 30.33 857 25.31 -1.4 29.4 68 -6.7 20
05:45 1027 30.33 857 25.31 -1.5 29.4 67 -6.8 19.7
05:50 1027 30.33 857 25.31 -1.4 29.5 67 -6.7 19.9
05:55 1027 30.33 856 25.28 -1.4 29.4 67 -6.7 19.9
06:00 1027 30.33 856 25.28 -1.6 29.2 68 -6.7 19.9
06:05 1027 30.33 856 25.28 -1.7 28.9 69 -6.8 19.8
06:10 1027 30.33 856 25.28 -1.8 28.8 69 -6.7 19.9
06:15 1027 30.33 856 25.28 -2.1 28.3 70 -6.8 19.7
06:20 1027 30.33 856 25.28 -2 28.4 69 -6.9 19.6
06:25 1027 30.33 856 25.28 -1.6 29.1 68 -6.8 19.7
06:30 1027 30.33 856 25.28 -1.4 29.5 67 -6.7 20
06:35 1027 30.33 856 25.28 -1.2 29.8 66 -6.8 19.7
06:40 1027 30.33 856 25.28 -1.3 29.7 67 -6.7 19.9
06:45 1027 30.33 856 25.28 -1.7 29 68 -6.8 19.7
06:50 1027 30.33 856 25.28 -1.7 28.9 68 -6.9 19.6
06:55 1027 30.33 856 25.28 -1.6 29.2 67 -6.9 19.6
07:00 1027 30.33 856 25.28 -1.3 29.7 66 -6.7 19.9
07:05 1027 30.33 856 25.28 -1.1 29.9 67 -6.6 20.2
07:10 1027 30.33 856 25.28 -1.2 29.8 67 -6.7 20
07:15 1027 30.33 856 25.28 -1.2 29.9 66 -6.7 19.9
07:20 1027 30.33 856 25.28 -1.3 29.6 66 -6.8 19.7
07:25 1027 30.33 856 25.28 -1.4 29.5 67 -6.8 19.8
07:30 1027 30.33 856 25.28 -1.3 29.7 66 -6.8 19.8
07:35 1027 30.33 856 25.28 -1.3 29.6 67 -6.7 19.9
07:40 1027 30.33 856 25.28 -1.5 29.3 67 -6.9 19.6
07:45 1027 30.33 856 25.28 -1.6 29.2 67 -6.9 19.7
07:50 1027 30.33 856 25.28 -1.7 29 68 -6.9 19.6
07:55 1027 30.33 856 25.28 -1.8 28.7 69 -6.9 19.7
08:00 1027 30.33 856 25.28 -1.8 28.7 68 -7 19.4
08:05 1027 30.33 856 25.28 -1.6 29 67 -6.9 19.5
08:10 1027 30.33 856 25.28 -1.2 29.8 66 -6.7 19.9
08:15 1027 30.33 856 25.28 -0.8 30.6 64 -6.7 19.9
08:20 1027 30.33 856 25.28 -0.8 30.5 67 -6.2 20.9
08:25 1027 30.33 856 25.28 -1.6 29.2 69 -6.5 20.4
08:30 1027 30.33 856 25.28 -1.6 29.2 67 -6.9 19.6
08:35 1027 30.33 856 25.28 -1.8 28.8 68 -6.9 19.5
08:40 1027 30.33 856 25.28 -1.6 29.2 67 -6.9 19.7
08:45 1027 30.33 856 25.28 -1.6 29.1 68 -6.7 19.9
08:50 1027 30.33 856 25.28 -1.9 28.5 70 -6.6 20.1
08:55 1027 30.33 856 25.28 -1.8 28.8 70 -6.6 20.1
09:00 1027 30.33 856 25.28 -2 28.5 71 -6.5 20.3
09:05 1027 30.33 856 25.28 -1.8 28.9 69 -6.8 19.8
09:10 1027 30.33 856 25.28 -1.3 29.6 66 -6.9 19.6
09:15 1027 30.33 856 25.28 -1.6 29.2 67 -6.9 19.6
09:20 1027 30.33 856 25.28 -1.8 28.7 68 -7 19.4
09:25 1027 30.33 856 25.28 -1.6 29 67 -7 19.5
09:30 1027 30.33 856 25.28 -1.6 29.1 67 -7 19.5
09:35 1027 30.33 856 25.28 -1.6 29.1 67 -7 19.5
09:40 1027 30.33 856 25.28 -1.5 29.2 66 -7.1 19.3
09:45 1027 30.33 856 25.28 -1.3 29.7 66 -6.9 19.5
09:50 1027 30.33 856 25.28 -1 30.2 64 -6.9 19.5
09:55 1027 30.33 856 25.28 -0.6 30.9 63 -6.9 19.6
10:00 1027 30.33 856 25.28 -0.6 31 63 -6.8 19.7
10:05 1027 30.33 856 25.28 -0.4 31.3 63 -6.6 20.2
10:10 1027 30.33 856 25.28 -0.4 31.3 63 -6.7 20
10:15 1027 30.33 856 25.28 -0.4 31.3 63 -6.6 20.2
10:20 1027 30.33 856 25.28 -0.2 31.7 62 -6.6 20.1
10:25 1027 30.33 856 25.28 0.3 32.6 59 -6.7 20
10:30 1027 30.33 856 25.28 0.7 33.2 59 -6.5 20.2
10:35 1027 30.33 856 25.28 0.6 33 59 -6.6 20.2
10:40 1027 30.33 856 25.28 0.7 33.2 58 -6.7 19.9
10:45 1027 30.33 856 25.28 1.4 34.5 56 -6.5 20.4
10:50 1027 30.33 856 25.28 2 35.6 54 -6.4 20.6
10:55 1027 30.33 856 25.28 2.5 36.6 52 -6.3 20.6
11:00 1027 30.33 856 25.28 3 37.4 51 -6.3 20.7
11:05 1027 30.33 856 25.28 3.1 37.6 51 -6.1 21
11:10 1027 30.33 856 25.28 3.5 38.4 49 -6.1 21
11:15 1027 30.33 856 25.28 3.2 37.7 50 -6.3 20.7
11:20 1027 30.33 856 25.28 2.9 37.3 51 -6.3 20.7
11:25 1027 30.33 856 25.28 3.6 38.5 48 -6.5 20.3
11:30 1027 30.33 856 25.28 4 39.2 47 -6.3 20.6
11:35 1027 30.33 856 25.28 4.7 40.4 46 -6 21.2
11:40 1027 30.33 856 25.28 4.5 40.2 47 -5.8 21.5
11:45 1027 30.33 856 25.28 4.9 40.8 45 -6.1 21
11:50 1027 30.33 856 25.28 5.3 41.5 45 -5.6 21.8
11:55 1026 30.3 856 25.28 5.2 41.4 45 -5.9 21.4
12:00 1026 30.3 856 25.28 5.4 41.7 45 -5.7 21.8
12:05 1026 30.3 856 25.28 5.4 41.8 46 -5.2 22.6
12:10 1026 30.3 856 25.28 5.1 41.2 46 -5.4 22.3
12:15 1026 30.3 855 25.25 5.1 41.2 47 -5.3 22.4
12:20 1026 30.3 855 25.25 5.1 41.2 47 -5.3 22.4
12:25 1026 30.3 855 25.25 5.2 41.3 47 -5.4 22.4
12:30 1026 30.3 855 25.25 5.2 41.4 46 -5.5 22.1
12:35 1026 30.3 855 25.25 5.2 41.4 47 -5.3 22.5
12:40 1026 30.3 855 25.25 5.2 41.3 47 -5.2 22.6
12:45 1026 30.3 855 25.25 5.4 41.7 46 -5.4 22.3
12:50 1026 30.3 855 25.25 5.6 42 47 -4.9 23.1
12:55 1026 30.3 855 25.25 5.6 42.1 45 -5.5 22.2
13:00 1026 30.3 855 25.25 5.6 42.1 45 -5.5 22.2
13:05 1026 30.3 855 25.25 5.6 42.2 46 -5.2 22.6
13:10 1026 30.3 855 25.25 6.1 43 43 -5.6 22
13:15 1026 30.3 855 25.25 5.7 42.3 43 -5.8 21.6
13:20 1025 30.27 855 25.25 5.3 41.5 43 -6.1 20.9
13:25 1025 30.27 855 25.25 5.2 41.3 45 -5.9 21.3
13:30 1025 30.27 855 25.25 5.4 41.7 44 -6 21.3
13:35 1025 30.27 855 25.25 5.5 41.9 43 -6 21.2
13:40 1025 30.27 854 25.22 5.5 41.8 44 -5.8 21.6
13:45 1025 30.27 854 25.22 5.6 42.1 43 -6 21.2
13:50 1025 30.27 854 25.22 5.7 42.2 43 -5.8 21.6
13:55 1025 30.27 854 25.22 6 42.8 42 -6 21.2
14:00 1025 30.27 854 25.22 6.6 43.9 41 -5.6 21.9
14:05 1025 30.27 854 25.22 6.9 44.3 41 -5.4 22.3
14:10 1025 30.27 854 25.22 6.3 43.3 45 -4.6 23.6
14:15 1025 30.27 854 25.22 5.4 41.7 46 -5.3 22.4
14:20 1025 30.27 854 25.22 5.7 42.2 46 -5.2 22.7
14:25 1025 30.27 854 25.22 5.6 42.2 45 -5.4 22.3
14:30 1025 30.27 854 25.22 5.9 42.6 43 -5.7 21.7
14:35 1025 30.27 854 25.22 6.3 43.4 42 -5.5 22.1
14:40 1025 30.27 854 25.22 6.5 43.6 43 -5.2 22.7
14:45 1025 30.27 854 25.22 6.7 44.1 42 -5.4 22.3
14:50 1024 30.24 854 25.22 7.4 45.3 41 -5 22.9
14:55 1024 30.24 854 25.22 7.2 45 41 -5 23
15:00 1024 30.24 853 25.19 6.5 43.8 44 -5 23.1
15:05 1024 30.24 853 25.19 6.4 43.6 43 -5.1 22.8
15:10 1024 30.24 853 25.19 6.9 44.3 41 -5.5 22.1
15:15 1024 30.24 853 25.19 6.9 44.5 42 -5 23.1
15:20 1024 30.24 853 25.19 6.9 44.5 42 -5.2 22.7
15:25 1024 30.24 853 25.19 7.4 45.4 40 -5.2 22.6
15:30 1024 30.24 853 25.19 7.9 46.2 40 -4.8 23.4
15:35 1024 30.24 853 25.19 8.1 46.6 42 -4.2 24.5
15:40 1024 30.24 853 25.19 7.8 46 44 -3.7 25.3
15:45 1024 30.24 853 25.19 7.9 46.3 41 -4.6 23.8
15:50 1024 30.24 853 25.19 7.8 46.1 38 -5.5 22.2
15:55 1024 30.24 853 25.19 7.5 45.4 38 -5.9 21.3
16:00 1024 30.24 853 25.19 7.5 45.5 40 -5.3 22.5
16:05 1023 30.21 853 25.19 7.8 46 39 -5.3 22.5
16:10 1023 30.21 853 25.19 7.8 46 40 -5.1 22.9
16:15 1023 30.21 853 25.19 7.6 45.7 40 -5 23
16:20 1023 30.21 852 25.16 7.2 45 43 -4.7 23.6
16:25 1023 30.21 852 25.16 7 44.6 41 -5.2 22.6
16:30 1023 30.21 852 25.16 7 44.6 43 -4.8 23.3
16:35 1023 30.21 852 25.16 6.6 43.9 44 -4.7 23.5
16:40 1023 30.21 852 25.16 6.4 43.6 45 -4.6 23.8
16:45 1023 30.21 852 25.16 6.3 43.4 45 -4.8 23.3
16:50 1023 30.21 852 25.16 6.3 43.3 44 -5.1 22.8
16:55 1023 30.21 852 25.16 6.4 43.5 43 -5.3 22.4
17:00 1023 30.21 852 25.16 5.9 42.7 44 -5.3 22.5
17:05 1023 30.21 852 25.16 5.7 42.2 46 -5 23.1
17:10 1023 30.21 852 25.16 5.8 42.5 46 -4.8 23.3
17:15 1023 30.21 852 25.16 5.5 41.8 49 -4.3 24.3
17:20 1023 30.21 852 25.16 4.9 40.8 51 -4.4 24
17:25 1023 30.21 852 25.16 5 41 52 -4 24.8
17:30 1023 30.21 852 25.16 5 41 53 -3.8 25.2
17:35 1023 30.21 852 25.16 4.9 40.8 56 -3.2 26.2
17:40 1023 30.21 852 25.16 4.2 39.6 57 -3.7 25.4
17:45 1023 30.21 852 25.16 4.2 39.6 56 -3.7 25.3
17:50 1023 30.21 852 25.16 4.4 40 55 -3.7 25.3
17:55 1023 30.21 852 25.16 4.2 39.6 57 -3.4 25.8
18:00 1023 30.21 852 25.16 3.6 38.5 59 -3.6 25.5
18:05 1023 30.21 852 25.16 3.6 38.5 60 -3.5 25.7
18:10 1023 30.21 852 25.16 3.4 38.1 61 -3.5 25.7
18:15 1023 30.21 852 25.16 3.3 38 60 -3.6 25.5
18:20 1023 30.21 852 25.16 3.3 37.9 61 -3.5 25.8
18:25 1023 30.21 852 25.16 3 37.5 61 -3.7 25.3
18:30 1023 30.21 852 25.16 3.1 37.5 59 -4.2 24.4
18:35 1022 30.18 852 25.16 3.1 37.5 61 -3.8 25.1
18:40 1022 30.18 852 25.16 3.1 37.6 60 -3.9 25.1
18:45 1022 30.18 852 25.16 3.3 37.9 59 -3.9 25
18:50 1022 30.18 851 25.13 3.3 37.9 60 -3.8 25.2
18:55 1022 30.18 851 25.13 3.3 38 58 -4.1 24.6
19:00 1022 30.18 851 25.13 2.8 37.1 60 -4.2 24.4
19:05 1022 30.18 851 25.13 2.6 36.7 57 -5.1 22.8
19:10 1022 30.18 851 25.13 2.9 37.3 60 -4 24.8
19:15 1022 30.18 851 25.13 2.6 36.7 58 -4.9 23.1
19:20 1022 30.18 851 25.13 2.5 36.4 59 -4.8 23.4
19:25 1022 30.18 851 25.13 2.2 36 60 -4.7 23.5
19:30 1022 30.18 851 25.13 2.4 36.4 57 -5.3 22.5
19:35 1022 30.18 851 25.13 2.8 37 55 -5.3 22.5
19:40 1022 30.18 851 25.13 3.2 37.7 53 -5.5 22.1
19:45 1022 30.18 851 25.13 3.3 38 53 -5.3 22.4
19:50 1022 30.18 851 25.13 3.3 37.9 52 -5.6 21.9
19:55 1022 30.18 851 25.13 3.2 37.8 53 -5.4 22.2
20:00 1022 30.18 851 25.13 3 37.3 52 -5.8 21.5
20:05 1022 30.18 851 25.13 3.5 38.3 51 -5.8 21.6
20:10 1022 30.18 851 25.13 3.4 38.2 51 -5.7 21.7
20:15 1022 30.18 851 25.13 3.5 38.3 51 -5.8 21.6
20:20 1022 30.18 851 25.13 3.4 38.1 52 -5.6 22
20:25 1022 30.18 851 25.13 3.2 37.7 52 -5.7 21.7
20:30 1022 30.18 851 25.13 3 37.5 52 -5.9 21.3
20:35 1022 30.18 851 25.13 3.1 37.6 52 -5.9 21.5
20:40 1022 30.18 851 25.13 3.2 37.7 50 -6.3 20.7
20:45 1022 30.18 851 25.13 3.4 38.2 49 -6.2 20.8
20:50 1022 30.18 851 25.13 3.4 38.2 51 -5.8 21.5
20:55 1022 30.18 851 25.13 3.1 37.6 52 -5.8 21.6
21:00 1022 30.18 851 25.13 3.1 37.5 51 -6.2 20.9
21:05 1022 30.18 851 25.13 3.2 37.8 52 -5.7 21.7
21:10 1022 30.18 851 25.13 2.9 37.3 53 -5.6 21.8
21:15 1022 30.18 851 25.13 2.8 37.1 51 -6.3 20.7
21:20 1022 30.18 851 25.13 2.7 36.8 54 -5.7 21.7
21:25 1022 30.18 851 25.13 2.4 36.2 55 -5.7 21.8
21:30 1022 30.18 851 25.13 2.1 35.8 56 -5.8 21.6
21:35 1022 30.18 851 25.13 2.1 35.8 55 -6.1 21
21:40 1021 30.15 851 25.13 2.3 36.2 54 -6 21.2
21:45 1021 30.15 851 25.13 2.2 36 55 -5.9 21.4
21:50 1021 30.15 851 25.13 2.4 36.3 54 -6.1 21
21:55 1021 30.15 851 25.13 2.5 36.6 54 -5.9 21.4
22:00 1021 30.15 851 25.13 2.7 36.8 53 -6 21.3
22:05 1021 30.15 851 25.13 2.7 36.9 54 -5.8 21.6
22:10 1021 30.15 851 25.13 2.8 37 53 -5.9 21.5
22:15 1021 30.15 851 25.13 2.9 37.1 52 -6 21.2
22:20 1021 30.15 850 25.1 2.7 36.9 52 -6.1 21
22:25 1021 30.15 850 25.1 2.6 36.7 52 -6.2 20.8
22:30 1021 30.15 850 25.1 2.6 36.7 52 -6.2 20.8
22:35 1021 30.15 850 25.1 2.5 36.5 53 -6.1 21.1
22:40 1021 30.15 850 25.1 2.5 36.5 53 -6 21.1
22:45 1021 30.15 850 25.1 2.6 36.7 52 -6.4 20.5
22:50 1021 30.15 850 25.1 3.1 37.6 49 -6.6 20.2
22:55 1021 30.15 850 25.1 3.3 37.9 49 -6.4 20.4
23:00 1021 30.15 850 25.1 3.1 37.6 50 -6.2 20.8
23:05 1021 30.15 850 25.1 2.9 37.2 52 -6 21.1
23:10 1021 30.15 850 25.1 2.7 36.9 52 -6.2 20.9
23:15 1021 30.15 850 25.1 2.5 36.5 53 -6.1 21.1
23:20 1021 30.15 850 25.1 2.5 36.5 54 -6 21.3
23:25 1021 30.15 850 25.1 2.4 36.3 55 -5.8 21.5
23:30 1021 30.15 850 25.1 2.2 36 55 -5.8 21.6
23:35 1021 30.15 850 25.1 2 35.6 55 -6 21.2
23:40 1021 30.15 850 25.1 2.2 35.9 55 -6 21.1
23:45 1021 30.15 850 25.1 2.2 36 55 -5.9 21.3
23:50 1021 30.15 850 25.1 2.2 35.9 55 -5.9 21.4
23:55 1021 30.15 850 25.1 2.1 35.8 55 -6 21.2
24:00 1021 30.15 850 25.1 2.2 35.9 55 -5.9 21.4